sensor_id;sensor_type;location;lat;lon;timestamp;P1;durP1;ratioP1;P2;durP2;ratioP2
21175;SDS011;10746;50.178;8.186;2022-08-21T00:01:31;7.45;;;3.58;;
21175;SDS011;10746;50.178;8.186;2022-08-21T00:03:57;6.50;;;3.40;;
21175;SDS011;10746;50.178;8.186;2022-08-21T00:06:29;9.02;;;3.05;;
21175;SDS011;10746;50.178;8.186;2022-08-21T00:08:57;8.00;;;3.90;;
21175;SDS011;10746;50.178;8.186;2022-08-21T00:11:24;10.38;;;3.50;;
21175;SDS011;10746;50.178;8.186;2022-08-21T00:13:53;11.18;;;3.90;;
21175;SDS011;10746;50.178;8.186;2022-08-21T00:16:20;10.25;;;3.60;;
21175;SDS011;10746;50.178;8.186;2022-08-21T00:18:47;8.27;;;4.25;;
21175;SDS011;10746;50.178;8.186;2022-08-21T00:21:15;9.25;;;3.90;;
21175;SDS011;10746;50.178;8.186;2022-08-21T00:23:42;7.28;;;4.53;;
21175;SDS011;10746;50.178;8.186;2022-08-21T00:26:09;13.18;;;4.40;;
21175;SDS011;10746;50.178;8.186;2022-08-21T00:28:36;10.65;;;3.97;;
21175;SDS011;10746;50.178;8.186;2022-08-21T00:31:04;7.50;;;3.97;;
21175;SDS011;10746;50.178;8.186;2022-08-21T00:33:31;11.93;;;3.92;;
21175;SDS011;10746;50.178;8.186;2022-08-21T00:35:58;10.63;;;4.00;;
21175;SDS011;10746;50.178;8.186;2022-08-21T00:38:25;11.27;;;3.95;;
21175;SDS011;10746;50.178;8.186;2022-08-21T00:40:52;9.70;;;4.38;;
21175;SDS011;10746;50.178;8.186;2022-08-21T00:43:23;6.30;;;3.75;;
21175;SDS011;10746;50.178;8.186;2022-08-21T00:45:52;7.35;;;3.50;;
21175;SDS011;10746;50.178;8.186;2022-08-21T00:48:22;12.52;;;4.03;;
21175;SDS011;10746;50.178;8.186;2022-08-21T00:50:50;5.90;;;3.58;;
21175;SDS011;10746;50.178;8.186;2022-08-21T00:53:22;8.38;;;3.90;;
21175;SDS011;10746;50.178;8.186;2022-08-21T00:55:49;8.00;;;3.92;;
21175;SDS011;10746;50.178;8.186;2022-08-21T00:58:18;6.47;;;3.70;;
21175;SDS011;10746;50.178;8.186;2022-08-21T01:00:47;7.75;;;3.67;;
21175;SDS011;10746;50.178;8.186;2022-08-21T01:03:15;11.13;;;4.15;;
21175;SDS011;10746;50.178;8.186;2022-08-21T01:05:45;10.35;;;4.57;;
21175;SDS011;10746;50.178;8.186;2022-08-21T01:08:12;11.30;;;4.47;;
21175;SDS011;10746;50.178;8.186;2022-08-21T01:10:41;9.00;;;3.80;;
21175;SDS011;10746;50.178;8.186;2022-08-21T01:13:09;7.78;;;4.20;;
21175;SDS011;10746;50.178;8.186;2022-08-21T01:15:39;9.02;;;3.80;;
21175;SDS011;10746;50.178;8.186;2022-08-21T01:18:09;8.95;;;4.53;;
21175;SDS011;10746;50.178;8.186;2022-08-21T01:20:38;10.25;;;4.15;;
21175;SDS011;10746;50.178;8.186;2022-08-21T01:23:09;8.07;;;3.90;;
21175;SDS011;10746;50.178;8.186;2022-08-21T01:25:35;7.75;;;4.10;;
21175;SDS011;10746;50.178;8.186;2022-08-21T01:28:04;7.18;;;4.28;;
21175;SDS011;10746;50.178;8.186;2022-08-21T01:30:35;8.60;;;3.92;;
21175;SDS011;10746;50.178;8.186;2022-08-21T01:33:04;8.75;;;4.53;;
21175;SDS011;10746;50.178;8.186;2022-08-21T01:35:31;12.95;;;4.35;;
21175;SDS011;10746;50.178;8.186;2022-08-21T01:37:58;9.60;;;3.90;;
21175;SDS011;10746;50.178;8.186;2022-08-21T01:40:26;10.23;;;4.18;;
21175;SDS011;10746;50.178;8.186;2022-08-21T01:42:53;8.38;;;3.67;;
21175;SDS011;10746;50.178;8.186;2022-08-21T01:45:19;9.90;;;4.30;;
21175;SDS011;10746;50.178;8.186;2022-08-21T01:47:47;9.95;;;4.28;;
21175;SDS011;10746;50.178;8.186;2022-08-21T01:50:15;8.15;;;3.92;;
21175;SDS011;10746;50.178;8.186;2022-08-21T01:52:44;8.35;;;3.95;;
21175;SDS011;10746;50.178;8.186;2022-08-21T01:55:11;6.70;;;4.10;;
21175;SDS011;10746;50.178;8.186;2022-08-21T01:57:44;6.50;;;4.07;;
21175;SDS011;10746;50.178;8.186;2022-08-21T02:00:12;10.98;;;4.03;;
21175;SDS011;10746;50.178;8.186;2022-08-21T02:02:41;8.75;;;4.18;;
21175;SDS011;10746;50.178;8.186;2022-08-21T02:05:09;7.20;;;4.28;;
21175;SDS011;10746;50.178;8.186;2022-08-21T02:07:37;11.38;;;4.25;;
21175;SDS011;10746;50.178;8.186;2022-08-21T02:10:06;7.32;;;3.63;;
21175;SDS011;10746;50.178;8.186;2022-08-21T02:12:35;5.05;;;3.83;;
21175;SDS011;10746;50.178;8.186;2022-08-21T02:15:03;7.03;;;3.83;;
21175;SDS011;10746;50.178;8.186;2022-08-21T02:17:36;7.38;;;3.65;;
21175;SDS011;10746;50.178;8.186;2022-08-21T02:20:05;9.93;;;3.90;;
21175;SDS011;10746;50.178;8.186;2022-08-21T02:22:33;11.40;;;3.92;;
21175;SDS011;10746;50.178;8.186;2022-08-21T02:24:59;8.85;;;3.83;;
21175;SDS011;10746;50.178;8.186;2022-08-21T02:27:26;7.38;;;3.78;;
21175;SDS011;10746;50.178;8.186;2022-08-21T02:29:54;10.60;;;3.92;;
21175;SDS011;10746;50.178;8.186;2022-08-21T02:32:23;8.38;;;3.42;;
21175;SDS011;10746;50.178;8.186;2022-08-21T02:34:51;6.25;;;3.90;;
21175;SDS011;10746;50.178;8.186;2022-08-21T02:37:18;13.02;;;3.63;;
21175;SDS011;10746;50.178;8.186;2022-08-21T02:39:44;11.80;;;4.25;;
21175;SDS011;10746;50.178;8.186;2022-08-21T02:42:11;8.75;;;3.85;;
21175;SDS011;10746;50.178;8.186;2022-08-21T02:44:38;6.90;;;3.80;;
21175;SDS011;10746;50.178;8.186;2022-08-21T02:47:04;10.18;;;4.43;;
21175;SDS011;10746;50.178;8.186;2022-08-21T02:49:33;6.75;;;3.67;;
21175;SDS011;10746;50.178;8.186;2022-08-21T02:52:00;7.43;;;4.00;;
21175;SDS011;10746;50.178;8.186;2022-08-21T02:54:27;7.43;;;3.83;;
21175;SDS011;10746;50.178;8.186;2022-08-21T02:56:54;7.35;;;3.78;;
21175;SDS011;10746;50.178;8.186;2022-08-21T02:59:20;6.68;;;3.75;;
21175;SDS011;10746;50.178;8.186;2022-08-21T03:01:47;7.82;;;4.35;;
21175;SDS011;10746;50.178;8.186;2022-08-21T03:04:14;7.70;;;4.07;;
21175;SDS011;10746;50.178;8.186;2022-08-21T03:06:42;6.15;;;3.90;;
21175;SDS011;10746;50.178;8.186;2022-08-21T03:09:09;9.60;;;4.18;;
21175;SDS011;10746;50.178;8.186;2022-08-21T03:11:35;13.65;;;4.32;;
21175;SDS011;10746;50.178;8.186;2022-08-21T03:14:02;9.05;;;4.18;;
21175;SDS011;10746;50.178;8.186;2022-08-21T03:16:30;9.20;;;4.55;;
21175;SDS011;10746;50.178;8.186;2022-08-21T03:18:57;6.28;;;4.28;;
21175;SDS011;10746;50.178;8.186;2022-08-21T03:21:24;8.32;;;3.92;;
21175;SDS011;10746;50.178;8.186;2022-08-21T03:23:52;11.55;;;4.60;;
21175;SDS011;10746;50.178;8.186;2022-08-21T03:26:19;10.23;;;4.22;;
21175;SDS011;10746;50.178;8.186;2022-08-21T03:28:46;8.02;;;4.18;;
21175;SDS011;10746;50.178;8.186;2022-08-21T03:31:13;9.25;;;3.88;;
21175;SDS011;10746;50.178;8.186;2022-08-21T03:33:40;11.98;;;4.45;;
21175;SDS011;10746;50.178;8.186;2022-08-21T03:36:07;9.77;;;4.90;;
21175;SDS011;10746;50.178;8.186;2022-08-21T03:38:34;5.07;;;3.90;;
21175;SDS011;10746;50.178;8.186;2022-08-21T03:41:04;7.60;;;4.35;;
21175;SDS011;10746;50.178;8.186;2022-08-21T03:43:32;9.85;;;4.75;;
21175;SDS011;10746;50.178;8.186;2022-08-21T03:46:00;9.70;;;4.90;;
21175;SDS011;10746;50.178;8.186;2022-08-21T03:48:27;7.93;;;4.53;;
21175;SDS011;10746;50.178;8.186;2022-08-21T03:50:53;8.32;;;4.50;;
21175;SDS011;10746;50.178;8.186;2022-08-21T03:53:21;10.25;;;4.95;;
21175;SDS011;10746;50.178;8.186;2022-08-21T03:55:49;5.80;;;3.92;;
21175;SDS011;10746;50.178;8.186;2022-08-21T03:58:21;14.57;;;4.10;;
21175;SDS011;10746;50.178;8.186;2022-08-21T04:00:50;10.10;;;4.25;;
21175;SDS011;10746;50.178;8.186;2022-08-21T04:03:18;6.65;;;4.60;;
21175;SDS011;10746;50.178;8.186;2022-08-21T04:05:45;7.80;;;4.30;;
21175;SDS011;10746;50.178;8.186;2022-08-21T04:08:13;4.47;;;4.07;;
21175;SDS011;10746;50.178;8.186;2022-08-21T04:10:42;9.23;;;4.55;;
21175;SDS011;10746;50.178;8.186;2022-08-21T04:13:11;10.48;;;4.47;;
21175;SDS011;10746;50.178;8.186;2022-08-21T04:15:40;6.28;;;4.35;;
21175;SDS011;10746;50.178;8.186;2022-08-21T04:18:07;11.70;;;5.07;;
21175;SDS011;10746;50.178;8.186;2022-08-21T04:20:35;9.68;;;4.47;;
21175;SDS011;10746;50.178;8.186;2022-08-21T04:23:02;6.88;;;4.97;;
21175;SDS011;10746;50.178;8.186;2022-08-21T04:25:29;9.60;;;4.82;;
21175;SDS011;10746;50.178;8.186;2022-08-21T04:27:56;7.25;;;4.30;;
21175;SDS011;10746;50.178;8.186;2022-08-21T04:30:23;10.30;;;4.80;;
21175;SDS011;10746;50.178;8.186;2022-08-21T04:32:52;9.10;;;4.70;;
21175;SDS011;10746;50.178;8.186;2022-08-21T04:35:20;14.15;;;5.35;;
21175;SDS011;10746;50.178;8.186;2022-08-21T04:37:48;8.90;;;4.18;;
21175;SDS011;10746;50.178;8.186;2022-08-21T04:40:17;14.27;;;4.30;;
21175;SDS011;10746;50.178;8.186;2022-08-21T04:42:46;8.65;;;4.53;;
21175;SDS011;10746;50.178;8.186;2022-08-21T04:45:16;8.02;;;4.53;;
21175;SDS011;10746;50.178;8.186;2022-08-21T04:47:46;11.25;;;5.50;;
21175;SDS011;10746;50.178;8.186;2022-08-21T04:50:16;9.15;;;4.53;;
21175;SDS011;10746;50.178;8.186;2022-08-21T04:52:43;11.82;;;4.65;;
21175;SDS011;10746;50.178;8.186;2022-08-21T04:55:10;7.20;;;4.75;;
21175;SDS011;10746;50.178;8.186;2022-08-21T04:57:37;6.40;;;4.28;;
21175;SDS011;10746;50.178;8.186;2022-08-21T05:00:06;12.73;;;4.85;;
21175;SDS011;10746;50.178;8.186;2022-08-21T05:02:35;9.07;;;4.70;;
21175;SDS011;10746;50.178;8.186;2022-08-21T05:05:03;7.47;;;4.80;;
21175;SDS011;10746;50.178;8.186;2022-08-21T05:07:32;9.98;;;4.50;;
21175;SDS011;10746;50.178;8.186;2022-08-21T05:09:59;13.00;;;4.72;;
21175;SDS011;10746;50.178;8.186;2022-08-21T05:12:27;8.75;;;4.75;;
21175;SDS011;10746;50.178;8.186;2022-08-21T05:14:53;9.60;;;4.63;;
21175;SDS011;10746;50.178;8.186;2022-08-21T05:17:20;7.20;;;4.43;;
21175;SDS011;10746;50.178;8.186;2022-08-21T05:19:47;8.48;;;5.15;;
21175;SDS011;10746;50.178;8.186;2022-08-21T05:22:18;8.10;;;4.80;;
21175;SDS011;10746;50.178;8.186;2022-08-21T05:24:47;9.07;;;4.80;;
21175;SDS011;10746;50.178;8.186;2022-08-21T05:27:14;12.20;;;5.05;;
21175;SDS011;10746;50.178;8.186;2022-08-21T05:29:40;11.40;;;4.75;;
21175;SDS011;10746;50.178;8.186;2022-08-21T05:32:08;9.00;;;4.95;;
21175;SDS011;10746;50.178;8.186;2022-08-21T05:34:36;12.32;;;5.45;;
21175;SDS011;10746;50.178;8.186;2022-08-21T05:37:03;14.07;;;5.57;;
21175;SDS011;10746;50.178;8.186;2022-08-21T05:39:30;7.18;;;4.75;;
21175;SDS011;10746;50.178;8.186;2022-08-21T05:41:59;9.50;;;5.15;;
21175;SDS011;10746;50.178;8.186;2022-08-21T05:44:26;9.90;;;4.78;;
21175;SDS011;10746;50.178;8.186;2022-08-21T05:46:52;11.20;;;5.40;;
21175;SDS011;10746;50.178;8.186;2022-08-21T05:49:19;8.15;;;4.68;;
21175;SDS011;10746;50.178;8.186;2022-08-21T05:51:46;9.43;;;4.38;;
21175;SDS011;10746;50.178;8.186;2022-08-21T05:54:12;9.90;;;4.57;;
21175;SDS011;10746;50.178;8.186;2022-08-21T05:56:39;12.15;;;4.65;;
21175;SDS011;10746;50.178;8.186;2022-08-21T05:59:10;11.52;;;4.85;;
21175;SDS011;10746;50.178;8.186;2022-08-21T06:01:38;6.25;;;4.18;;
21175;SDS011;10746;50.178;8.186;2022-08-21T06:04:06;9.25;;;4.53;;
21175;SDS011;10746;50.178;8.186;2022-08-21T06:06:33;9.52;;;4.25;;
21175;SDS011;10746;50.178;8.186;2022-08-21T06:09:00;7.28;;;4.40;;
21175;SDS011;10746;50.178;8.186;2022-08-21T06:11:27;12.80;;;4.60;;
21175;SDS011;10746;50.178;8.186;2022-08-21T06:13:53;6.55;;;3.78;;
21175;SDS011;10746;50.178;8.186;2022-08-21T06:16:21;7.50;;;4.00;;
21175;SDS011;10746;50.178;8.186;2022-08-21T06:18:48;8.60;;;4.15;;
21175;SDS011;10746;50.178;8.186;2022-08-21T06:21:15;5.85;;;3.88;;
21175;SDS011;10746;50.178;8.186;2022-08-21T06:23:43;7.32;;;3.85;;
21175;SDS011;10746;50.178;8.186;2022-08-21T06:26:10;7.57;;;4.20;;
21175;SDS011;10746;50.178;8.186;2022-08-21T06:28:39;9.05;;;4.10;;
21175;SDS011;10746;50.178;8.186;2022-08-21T06:31:10;8.60;;;3.75;;
21175;SDS011;10746;50.178;8.186;2022-08-21T06:33:40;10.70;;;4.00;;
21175;SDS011;10746;50.178;8.186;2022-08-21T06:36:07;11.82;;;4.13;;
21175;SDS011;10746;50.178;8.186;2022-08-21T06:38:34;5.85;;;3.90;;
21175;SDS011;10746;50.178;8.186;2022-08-21T06:41:01;11.68;;;4.00;;
21175;SDS011;10746;50.178;8.186;2022-08-21T06:43:27;7.70;;;4.30;;
21175;SDS011;10746;50.178;8.186;2022-08-21T06:45:54;7.53;;;3.80;;
21175;SDS011;10746;50.178;8.186;2022-08-21T06:48:21;9.15;;;4.47;;
21175;SDS011;10746;50.178;8.186;2022-08-21T06:50:49;10.35;;;3.67;;
21175;SDS011;10746;50.178;8.186;2022-08-21T06:53:16;11.13;;;4.22;;
21175;SDS011;10746;50.178;8.186;2022-08-21T06:55:45;10.38;;;4.13;;
21175;SDS011;10746;50.178;8.186;2022-08-21T06:58:12;13.35;;;4.47;;
21175;SDS011;10746;50.178;8.186;2022-08-21T07:00:39;9.35;;;3.85;;
21175;SDS011;10746;50.178;8.186;2022-08-21T07:03:15;7.82;;;4.05;;
21175;SDS011;10746;50.178;8.186;2022-08-21T07:05:43;5.47;;;3.55;;
21175;SDS011;10746;50.178;8.186;2022-08-21T07:08:11;8.48;;;4.10;;
21175;SDS011;10746;50.178;8.186;2022-08-21T07:10:37;9.50;;;4.10;;
21175;SDS011;10746;50.178;8.186;2022-08-21T07:13:04;11.25;;;5.40;;
21175;SDS011;10746;50.178;8.186;2022-08-21T07:15:31;11.70;;;5.35;;
21175;SDS011;10746;50.178;8.186;2022-08-21T07:17:58;9.93;;;4.68;;
21175;SDS011;10746;50.178;8.186;2022-08-21T07:20:25;14.45;;;5.78;;
21175;SDS011;10746;50.178;8.186;2022-08-21T07:22:52;11.30;;;5.72;;
21175;SDS011;10746;50.178;8.186;2022-08-21T07:25:21;13.57;;;6.13;;
21175;SDS011;10746;50.178;8.186;2022-08-21T07:27:48;16.55;;;6.53;;
21175;SDS011;10746;50.178;8.186;2022-08-21T07:30:14;17.15;;;5.63;;
21175;SDS011;10746;50.178;8.186;2022-08-21T07:32:41;16.38;;;5.63;;
21175;SDS011;10746;50.178;8.186;2022-08-21T07:35:09;16.23;;;5.75;;
21175;SDS011;10746;50.178;8.186;2022-08-21T07:37:36;13.93;;;5.75;;
21175;SDS011;10746;50.178;8.186;2022-08-21T07:40:03;16.40;;;5.10;;
21175;SDS011;10746;50.178;8.186;2022-08-21T07:42:32;12.80;;;5.70;;
21175;SDS011;10746;50.178;8.186;2022-08-21T07:44:58;11.65;;;5.53;;
21175;SDS011;10746;50.178;8.186;2022-08-21T07:47:25;16.38;;;5.38;;
21175;SDS011;10746;50.178;8.186;2022-08-21T07:49:52;22.55;;;5.65;;
21175;SDS011;10746;50.178;8.186;2022-08-21T07:52:18;15.75;;;4.93;;
21175;SDS011;10746;50.178;8.186;2022-08-21T07:54:45;12.60;;;5.35;;
21175;SDS011;10746;50.178;8.186;2022-08-21T07:57:12;13.98;;;4.80;;
21175;SDS011;10746;50.178;8.186;2022-08-21T07:59:40;11.63;;;4.97;;
21175;SDS011;10746;50.178;8.186;2022-08-21T08:02:07;10.88;;;5.60;;
21175;SDS011;10746;50.178;8.186;2022-08-21T08:04:34;14.93;;;6.30;;
21175;SDS011;10746;50.178;8.186;2022-08-21T08:07:00;8.63;;;4.32;;
21175;SDS011;10746;50.178;8.186;2022-08-21T08:09:27;8.90;;;4.35;;
21175;SDS011;10746;50.178;8.186;2022-08-21T08:11:54;8.57;;;3.80;;
21175;SDS011;10746;50.178;8.186;2022-08-21T08:14:20;6.80;;;3.40;;
21175;SDS011;10746;50.178;8.186;2022-08-21T08:16:48;7.25;;;2.95;;
21175;SDS011;10746;50.178;8.186;2022-08-21T08:19:15;5.47;;;2.60;;
21175;SDS011;10746;50.178;8.186;2022-08-21T08:21:42;5.25;;;2.75;;
21175;SDS011;10746;50.178;8.186;2022-08-21T08:24:08;8.45;;;2.95;;
21175;SDS011;10746;50.178;8.186;2022-08-21T08:26:35;8.43;;;3.15;;
21175;SDS011;10746;50.178;8.186;2022-08-21T08:29:02;5.63;;;2.70;;
21175;SDS011;10746;50.178;8.186;2022-08-21T08:31:29;7.20;;;2.70;;
21175;SDS011;10746;50.178;8.186;2022-08-21T08:33:57;7.78;;;2.88;;
21175;SDS011;10746;50.178;8.186;2022-08-21T08:36:30;6.97;;;2.47;;
21175;SDS011;10746;50.178;8.186;2022-08-21T08:38:59;6.57;;;2.80;;
21175;SDS011;10746;50.178;8.186;2022-08-21T08:41:29;12.20;;;3.45;;
21175;SDS011;10746;50.178;8.186;2022-08-21T08:43:58;8.70;;;3.03;;
21175;SDS011;10746;50.178;8.186;2022-08-21T08:46:29;5.20;;;3.08;;
21175;SDS011;10746;50.178;8.186;2022-08-21T08:49:04;9.40;;;3.53;;
21175;SDS011;10746;50.178;8.186;2022-08-21T08:51:38;7.65;;;3.38;;
21175;SDS011;10746;50.178;8.186;2022-08-21T08:54:10;7.63;;;3.70;;
21175;SDS011;10746;50.178;8.186;2022-08-21T08:56:40;9.98;;;3.38;;
21175;SDS011;10746;50.178;8.186;2022-08-21T08:59:08;11.18;;;4.18;;
21175;SDS011;10746;50.178;8.186;2022-08-21T09:01:40;10.43;;;4.00;;
21175;SDS011;10746;50.178;8.186;2022-08-21T09:04:08;8.63;;;3.47;;
21175;SDS011;10746;50.178;8.186;2022-08-21T09:06:40;9.77;;;3.42;;
21175;SDS011;10746;50.178;8.186;2022-08-21T09:09:18;11.05;;;3.28;;
21175;SDS011;10746;50.178;8.186;2022-08-21T09:11:52;9.05;;;3.50;;
21175;SDS011;10746;50.178;8.186;2022-08-21T09:14:29;11.50;;;4.25;;
21175;SDS011;10746;50.178;8.186;2022-08-21T09:17:11;12.88;;;3.83;;
21175;SDS011;10746;50.178;8.186;2022-08-21T09:19:54;7.55;;;3.40;;
21175;SDS011;10746;50.178;8.186;2022-08-21T09:22:29;8.82;;;3.85;;
21175;SDS011;10746;50.178;8.186;2022-08-21T09:25:07;8.45;;;3.75;;
21175;SDS011;10746;50.178;8.186;2022-08-21T09:27:39;8.45;;;3.53;;
21175;SDS011;10746;50.178;8.186;2022-08-21T09:30:06;9.18;;;3.30;;
21175;SDS011;10746;50.178;8.186;2022-08-21T09:32:36;9.05;;;3.78;;
21175;SDS011;10746;50.178;8.186;2022-08-21T09:35:07;7.80;;;3.58;;
21175;SDS011;10746;50.178;8.186;2022-08-21T09:37:44;7.15;;;3.90;;
21175;SDS011;10746;50.178;8.186;2022-08-21T09:40:19;8.20;;;3.50;;
21175;SDS011;10746;50.178;8.186;2022-08-21T09:42:56;8.48;;;2.97;;
21175;SDS011;10746;50.178;8.186;2022-08-21T09:45:24;8.32;;;2.78;;
21175;SDS011;10746;50.178;8.186;2022-08-21T09:47:51;6.13;;;2.70;;
21175;SDS011;10746;50.178;8.186;2022-08-21T09:50:20;4.45;;;2.80;;
21175;SDS011;10746;50.178;8.186;2022-08-21T09:52:48;8.48;;;3.28;;
21175;SDS011;10746;50.178;8.186;2022-08-21T09:55:23;8.13;;;2.70;;
21175;SDS011;10746;50.178;8.186;2022-08-21T09:58:15;10.65;;;2.80;;
21175;SDS011;10746;50.178;8.186;2022-08-21T10:00:43;7.68;;;2.88;;
21175;SDS011;10746;50.178;8.186;2022-08-21T10:03:11;6.70;;;2.75;;
21175;SDS011;10746;50.178;8.186;2022-08-21T10:05:50;9.88;;;3.10;;
21175;SDS011;10746;50.178;8.186;2022-08-21T10:08:20;8.25;;;2.90;;
21175;SDS011;10746;50.178;8.186;2022-08-21T10:10:50;7.18;;;2.65;;
21175;SDS011;10746;50.178;8.186;2022-08-21T10:13:19;6.65;;;2.60;;
21175;SDS011;10746;50.178;8.186;2022-08-21T10:15:51;4.57;;;2.72;;
21175;SDS011;10746;50.178;8.186;2022-08-21T10:18:28;6.72;;;2.90;;
21175;SDS011;10746;50.178;8.186;2022-08-21T10:21:04;8.70;;;2.42;;
21175;SDS011;10746;50.178;8.186;2022-08-21T10:23:39;7.93;;;2.58;;
21175;SDS011;10746;50.178;8.186;2022-08-21T10:26:18;15.20;;;2.75;;
21175;SDS011;10746;50.178;8.186;2022-08-21T10:28:55;6.13;;;2.47;;
21175;SDS011;10746;50.178;8.186;2022-08-21T10:31:29;7.57;;;2.92;;
21175;SDS011;10746;50.178;8.186;2022-08-21T10:34:06;8.82;;;2.65;;
21175;SDS011;10746;50.178;8.186;2022-08-21T10:36:45;5.93;;;2.70;;
21175;SDS011;10746;50.178;8.186;2022-08-21T10:39:19;4.38;;;2.28;;
21175;SDS011;10746;50.178;8.186;2022-08-21T10:41:58;5.55;;;2.20;;
21175;SDS011;10746;50.178;8.186;2022-08-21T10:44:47;6.88;;;2.10;;
21175;SDS011;10746;50.178;8.186;2022-08-21T10:47:23;7.80;;;2.03;;
21175;SDS011;10746;50.178;8.186;2022-08-21T10:49:56;7.15;;;2.35;;
21175;SDS011;10746;50.178;8.186;2022-08-21T10:52:39;3.65;;;2.03;;
21175;SDS011;10746;50.178;8.186;2022-08-21T10:55:15;6.72;;;2.17;;
21175;SDS011;10746;50.178;8.186;2022-08-21T10:57:46;4.80;;;1.90;;
21175;SDS011;10746;50.178;8.186;2022-08-21T11:00:17;7.35;;;1.80;;
21175;SDS011;10746;50.178;8.186;2022-08-21T11:02:47;5.63;;;2.10;;
21175;SDS011;10746;50.178;8.186;2022-08-21T11:05:19;4.30;;;2.15;;
21175;SDS011;10746;50.178;8.186;2022-08-21T11:07:53;4.13;;;2.00;;
21175;SDS011;10746;50.178;8.186;2022-08-21T11:10:23;4.43;;;2.03;;
21175;SDS011;10746;50.178;8.186;2022-08-21T11:12:52;7.93;;;1.95;;
21175;SDS011;10746;50.178;8.186;2022-08-21T11:15:26;4.93;;;2.03;;
21175;SDS011;10746;50.178;8.186;2022-08-21T11:17:59;4.95;;;2.05;;
21175;SDS011;10746;50.178;8.186;2022-08-21T11:20:33;2.45;;;1.80;;
21175;SDS011;10746;50.178;8.186;2022-08-21T11:23:06;5.32;;;2.10;;
21175;SDS011;10746;50.178;8.186;2022-08-21T11:25:39;3.35;;;2.00;;
21175;SDS011;10746;50.178;8.186;2022-08-21T11:28:16;3.22;;;1.63;;
21175;SDS011;10746;50.178;8.186;2022-08-21T11:30:50;3.30;;;1.88;;
21175;SDS011;10746;50.178;8.186;2022-08-21T11:33:29;6.45;;;2.30;;
21175;SDS011;10746;50.178;8.186;2022-08-21T11:36:07;5.78;;;1.63;;
21175;SDS011;10746;50.178;8.186;2022-08-21T11:38:44;3.88;;;1.83;;
21175;SDS011;10746;50.178;8.186;2022-08-21T11:41:19;3.42;;;1.85;;
21175;SDS011;10746;50.178;8.186;2022-08-21T11:43:55;3.33;;;1.85;;
21175;SDS011;10746;50.178;8.186;2022-08-21T11:46:29;1.90;;;1.70;;
21175;SDS011;10746;50.178;8.186;2022-08-21T11:49:06;5.30;;;2.00;;
21175;SDS011;10746;50.178;8.186;2022-08-21T11:51:53;5.20;;;2.05;;
21175;SDS011;10746;50.178;8.186;2022-08-21T11:54:31;8.98;;;2.15;;
21175;SDS011;10746;50.178;8.186;2022-08-21T11:57:03;6.50;;;2.17;;
21175;SDS011;10746;50.178;8.186;2022-08-21T11:59:35;4.30;;;1.50;;
21175;SDS011;10746;50.178;8.186;2022-08-21T12:02:07;2.63;;;1.90;;
21175;SDS011;10746;50.178;8.186;2022-08-21T12:04:42;3.88;;;1.90;;
21175;SDS011;10746;50.178;8.186;2022-08-21T12:07:11;2.67;;;1.80;;
21175;SDS011;10746;50.178;8.186;2022-08-21T12:09:50;7.90;;;1.85;;
21175;SDS011;10746;50.178;8.186;2022-08-21T12:12:23;4.40;;;2.50;;
21175;SDS011;10746;50.178;8.186;2022-08-21T12:15:03;3.45;;;1.83;;
21175;SDS011;10746;50.178;8.186;2022-08-21T12:17:51;4.60;;;2.10;;
21175;SDS011;10746;50.178;8.186;2022-08-21T12:20:36;3.55;;;1.70;;
21175;SDS011;10746;50.178;8.186;2022-08-21T12:23:14;3.55;;;1.45;;
21175;SDS011;10746;50.178;8.186;2022-08-21T12:25:44;2.17;;;1.80;;
21175;SDS011;10746;50.178;8.186;2022-08-21T12:28:24;2.28;;;1.75;;
21175;SDS011;10746;50.178;8.186;2022-08-21T12:30:51;2.00;;;1.42;;
21175;SDS011;10746;50.178;8.186;2022-08-21T12:33:20;4.70;;;1.90;;
21175;SDS011;10746;50.178;8.186;2022-08-21T12:35:50;4.90;;;1.80;;
21175;SDS011;10746;50.178;8.186;2022-08-21T12:38:19;3.00;;;1.70;;
21175;SDS011;10746;50.178;8.186;2022-08-21T12:40:52;3.20;;;1.75;;
21175;SDS011;10746;50.178;8.186;2022-08-21T12:43:23;4.40;;;2.13;;
21175;SDS011;10746;50.178;8.186;2022-08-21T12:45:54;2.47;;;1.60;;
21175;SDS011;10746;50.178;8.186;2022-08-21T12:48:23;2.47;;;1.83;;
21175;SDS011;10746;50.178;8.186;2022-08-21T12:50:55;1.88;;;1.70;;
21175;SDS011;10746;50.178;8.186;2022-08-21T12:53:25;2.33;;;1.73;;
21175;SDS011;10746;50.178;8.186;2022-08-21T12:55:56;3.67;;;1.85;;
21175;SDS011;10746;50.178;8.186;2022-08-21T12:58:27;3.05;;;1.67;;
21175;SDS011;10746;50.178;8.186;2022-08-21T13:00:54;3.58;;;1.70;;
21175;SDS011;10746;50.178;8.186;2022-08-21T13:03:24;3.85;;;1.70;;
21175;SDS011;10746;50.178;8.186;2022-08-21T13:05:51;3.83;;;1.70;;
21175;SDS011;10746;50.178;8.186;2022-08-21T13:08:19;2.08;;;1.67;;
21175;SDS011;10746;50.178;8.186;2022-08-21T13:10:49;4.55;;;1.60;;
21175;SDS011;10746;50.178;8.186;2022-08-21T13:13:24;2.72;;;1.70;;
21175;SDS011;10746;50.178;8.186;2022-08-21T13:15:56;2.97;;;1.70;;
21175;SDS011;10746;50.178;8.186;2022-08-21T13:18:24;2.05;;;1.50;;
21175;SDS011;10746;50.178;8.186;2022-08-21T13:21:02;2.88;;;1.55;;
21175;SDS011;10746;50.178;8.186;2022-08-21T13:23:31;4.40;;;1.70;;
21175;SDS011;10746;50.178;8.186;2022-08-21T13:25:58;3.45;;;1.60;;
21175;SDS011;10746;50.178;8.186;2022-08-21T13:28:33;3.00;;;1.60;;
21175;SDS011;10746;50.178;8.186;2022-08-21T13:31:05;1.60;;;1.50;;
21175;SDS011;10746;50.178;8.186;2022-08-21T13:33:35;1.70;;;1.50;;
21175;SDS011;10746;50.178;8.186;2022-08-21T13:36:04;3.30;;;1.60;;
21175;SDS011;10746;50.178;8.186;2022-08-21T13:38:35;2.47;;;1.40;;
21175;SDS011;10746;50.178;8.186;2022-08-21T13:41:04;1.48;;;1.38;;
21175;SDS011;10746;50.178;8.186;2022-08-21T13:43:35;3.28;;;1.30;;
21175;SDS011;10746;50.178;8.186;2022-08-21T13:46:06;6.22;;;1.75;;
21175;SDS011;10746;50.178;8.186;2022-08-21T13:48:35;1.40;;;1.30;;
21175;SDS011;10746;50.178;8.186;2022-08-21T13:51:03;2.42;;;1.67;;
21175;SDS011;10746;50.178;8.186;2022-08-21T13:53:31;2.33;;;1.42;;
21175;SDS011;10746;50.178;8.186;2022-08-21T13:56:01;3.92;;;1.70;;
21175;SDS011;10746;50.178;8.186;2022-08-21T13:58:30;3.28;;;1.60;;
21175;SDS011;10746;50.178;8.186;2022-08-21T14:01:00;2.72;;;1.60;;
21175;SDS011;10746;50.178;8.186;2022-08-21T14:03:30;3.35;;;1.50;;
21175;SDS011;10746;50.178;8.186;2022-08-21T14:05:59;1.55;;;1.33;;
21175;SDS011;10746;50.178;8.186;2022-08-21T14:08:29;8.52;;;1.92;;
21175;SDS011;10746;50.178;8.186;2022-08-21T14:11:00;3.67;;;1.70;;
21175;SDS011;10746;50.178;8.186;2022-08-21T14:13:33;1.30;;;1.20;;
21175;SDS011;10746;50.178;8.186;2022-08-21T14:16:13;2.53;;;1.42;;
21175;SDS011;10746;50.178;8.186;2022-08-21T14:18:44;1.70;;;1.35;;
21175;SDS011;10746;50.178;8.186;2022-08-21T14:21:22;1.85;;;1.20;;
21175;SDS011;10746;50.178;8.186;2022-08-21T14:23:58;1.35;;;1.25;;
21175;SDS011;10746;50.178;8.186;2022-08-21T14:26:28;1.92;;;1.30;;
21175;SDS011;10746;50.178;8.186;2022-08-21T14:28:57;1.52;;;1.42;;
21175;SDS011;10746;50.178;8.186;2022-08-21T14:31:29;2.08;;;1.25;;
21175;SDS011;10746;50.178;8.186;2022-08-21T14:33:57;2.20;;;1.50;;
21175;SDS011;10746;50.178;8.186;2022-08-21T14:36:25;1.92;;;1.40;;
21175;SDS011;10746;50.178;8.186;2022-08-21T14:38:52;1.75;;;1.65;;
21175;SDS011;10746;50.178;8.186;2022-08-21T14:41:21;1.65;;;1.40;;
21175;SDS011;10746;50.178;8.186;2022-08-21T14:43:49;1.50;;;1.40;;
21175;SDS011;10746;50.178;8.186;2022-08-21T14:46:18;3.35;;;1.40;;
21175;SDS011;10746;50.178;8.186;2022-08-21T14:48:49;2.65;;;1.33;;
21175;SDS011;10746;50.178;8.186;2022-08-21T14:51:16;2.40;;;1.40;;
21175;SDS011;10746;50.178;8.186;2022-08-21T14:53:43;1.95;;;1.60;;
21175;SDS011;10746;50.178;8.186;2022-08-21T14:56:10;4.85;;;1.30;;
21175;SDS011;10746;50.178;8.186;2022-08-21T14:58:39;3.25;;;1.30;;
21175;SDS011;10746;50.178;8.186;2022-08-21T15:01:09;1.88;;;1.40;;